Terminal Aerodrome Forecast
Issued by NWS

Home | Current Version | Previous Version | Text Only | Print | Product List | Glossary On
Versions: 1 2 3 4 5 6 7 8 9 10 11 12 13 14 15 16
000
FTAK31 PAFA 301142
TAFAQT
TAF
PAQT 301142Z 3012/3112 21010KT P6SM OVC060
     FM301600 26007KT 5SM -SN BR SCT015 OVC025
      TEMPO 3016/3020 2SM -SN BR OVC015
     FM310600 31010KT 3SM -SN BR OVC015=

USA.gov is the U.S. government's official web portal to all federal, state and local government web resources and services.